Time;durP1;ratioP1;P1;durP2;ratioP2;P2;SDS_P1;SDS_P2;PMS_P1;PMS_P2;Temp;Humidity;BMP_temperature;BMP_pressure;BME280_temperature;BME280_humidity;BME280_pressure;Samples;Min_cycle;Max_cycle;Signal;HPM_P1;HPM_P2
2023/11/23 00:00:46;;;;;;;9.53;7.50;;;9.60;98.80;;;;;;5068974;28;20226;-87
2023/11/23 00:03:14;;;;;;;10.43;8.13;;;9.60;98.70;;;;;;5045744;28;20504;-85
2023/11/23 00:05:42;;;;;;;10.00;8.10;;;9.60;98.70;;;;;;5055677;28;20196;-87
2023/11/23 00:08:08;;;;;;;10.35;8.25;;;9.60;98.70;;;;;;5062310;28;20453;-87
2023/11/23 00:10:34;;;;;;;12.33;9.20;;;9.70;98.70;;;;;;5055928;28;20640;-87
2023/11/23 00:13:00;;;;;;;10.60;8.40;;;9.70;98.60;;;;;;5047519;28;20559;-87
2023/11/23 00:15:28;;;;;;;10.93;8.63;;;9.70;98.60;;;;;;5072037;28;20548;-86
2023/11/23 00:17:54;;;;;;;10.43;8.35;;;9.60;98.60;;;;;;5047085;28;20222;-87
2023/11/23 00:20:20;;;;;;;11.33;8.13;;;9.70;98.70;;;;;;5042090;28;20484;-88
2023/11/23 00:22:46;;;;;;;9.65;7.35;;;9.70;98.70;;;;;;5048344;28;20461;-88
2023/11/23 00:25:13;;;;;;;11.18;8.05;;;9.60;98.70;;;;;;5057592;28;20281;-86
2023/11/23 00:27:39;;;;;;;10.20;7.97;;;9.70;98.70;;;;;;5051113;28;20241;-89
2023/11/23 00:30:08;;;;;;;13.20;8.53;;;9.70;99.10;;;;;;5044298;28;20430;-85
2023/11/23 00:32:34;;;;;;;12.83;8.60;;;9.70;98.80;;;;;;5057966;28;20440;-87
2023/11/23 00:35:00;;;;;;;11.97;8.80;;;9.60;98.80;;;;;;5049981;28;20452;-86
2023/11/23 00:37:28;;;;;;;11.70;8.55;;;9.60;99.00;;;;;;5047519;28;20547;-87
2023/11/23 00:39:57;;;;;;;12.00;8.20;;;9.60;99.10;;;;;;5047287;28;20219;-87
2023/11/23 00:42:24;;;;;;;11.87;7.87;;;9.60;99.10;;;;;;5074641;28;20519;-86
2023/11/23 00:44:54;;;;;;;11.20;7.90;;;9.60;99.20;;;;;;5042624;28;20421;-85
2023/11/23 00:47:20;;;;;;;9.40;7.77;;;9.60;99.30;;;;;;5072196;28;20470;-87
2023/11/23 00:49:46;;;;;;;11.53;8.20;;;9.50;99.40;;;;;;5043879;28;20525;-87
2023/11/23 00:52:12;;;;;;;11.10;7.82;;;9.50;99.50;;;;;;5051935;28;20533;-87
2023/11/23 00:54:39;;;;;;;11.70;8.70;;;9.50;99.60;;;;;;5032286;28;20252;-86
2023/11/23 00:57:06;;;;;;;10.50;7.90;;;9.50;99.60;;;;;;5052536;28;20456;-86
2023/11/23 00:59:33;;;;;;;14.13;7.90;;;9.50;99.60;;;;;;5039391;28;20477;-85
2023/11/23 01:02:01;;;;;;;11.03;8.60;;;9.50;99.70;;;;;;5036208;28;21000;-86
2023/11/23 01:04:28;;;;;;;12.05;7.80;;;9.50;99.90;;;;;;5067239;28;20417;-87
2023/11/23 01:06:54;;;;;;;9.02;8.13;;;9.50;99.90;;;;;;5057778;28;20179;-87
2023/11/23 01:09:20;;;;;;;12.57;8.83;;;9.50;99.90;;;;;;5046124;28;20265;-87
2023/11/23 01:11:47;;;;;;;11.47;8.90;;;9.60;99.90;;;;;;5068498;28;20413;-86
2023/11/23 01:14:13;;;;;;;18.80;9.00;;;9.60;99.90;;;;;;5032152;28;21078;-86
2023/11/23 01:16:41;;;;;;;10.67;8.30;;;9.60;99.90;;;;;;5030635;28;20421;-87
2023/11/23 01:19:12;;;;;;;10.03;8.23;;;9.60;99.90;;;;;;5038724;28;20465;-86
2023/11/23 01:21:37;;;;;;;18.60;10.10;;;9.60;99.90;;;;;;5029542;28;20457;-85
2023/11/23 01:24:04;;;;;;;15.63;9.57;;;9.50;99.90;;;;;;5035065;28;20472;-85
2023/11/23 01:26:30;;;;;;;12.90;8.53;;;9.50;99.90;;;;;;5028118;28;20465;-86
2023/11/23 01:28:57;;;;;;;14.77;9.37;;;9.50;99.90;;;;;;5024772;28;20479;-85
2023/11/23 01:31:23;;;;;;;14.27;9.13;;;9.50;99.90;;;;;;5022872;28;20434;-87
2023/11/23 01:33:49;;;;;;;14.80;10.03;;;9.50;99.90;;;;;;5032672;28;20212;-87
2023/11/23 01:36:16;;;;;;;13.40;9.40;;;9.50;99.90;;;;;;5035798;28;20448;-86
2023/11/23 01:38:44;;;;;;;15.07;8.47;;;9.50;99.90;;;;;;5053572;28;20769;-85
2023/11/23 01:41:10;;;;;;;11.50;8.37;;;9.50;99.90;;;;;;5059594;28;20434;-87
2023/11/23 01:43:40;;;;;;;11.20;8.07;;;9.50;99.90;;;;;;5038396;28;20244;-85
2023/11/23 01:46:06;;;;;;;15.93;8.90;;;9.50;99.90;;;;;;5026183;28;20458;-87
2023/11/23 01:48:35;;;;;;;15.57;9.13;;;9.50;99.90;;;;;;5052986;28;20490;-85
2023/11/23 01:51:01;;;;;;;13.70;8.87;;;9.50;99.90;;;;;;5054358;28;20458;-84
2023/11/23 01:53:28;;;;;;;13.37;9.27;;;9.50;99.90;;;;;;5044908;28;20477;-85
2023/11/23 01:55:58;;;;;;;17.77;9.17;;;9.50;99.90;;;;;;5054135;28;20464;-86
2023/11/23 01:58:24;;;;;;;11.90;8.90;;;9.50;99.90;;;;;;5057781;28;20421;-86
2023/11/23 02:00:53;;;;;;;17.63;9.30;;;9.50;99.90;;;;;;5075653;28;20412;-85
2023/11/23 02:03:21;;;;;;;13.67;9.10;;;9.50;99.90;;;;;;5034464;28;20968;-86
2023/11/23 02:05:47;;;;;;;11.23;8.03;;;9.50;99.90;;;;;;5031862;28;20972;-84
2023/11/23 02:08:15;;;;;;;14.00;9.30;;;9.50;99.90;;;;;;5063786;28;20426;-85
2023/11/23 02:10:43;;;;;;;14.67;9.93;;;9.50;99.90;;;;;;5033052;28;20198;-85
2023/11/23 02:13:12;;;;;;;12.57;8.67;;;9.50;99.90;;;;;;5060445;28;20434;-85
2023/11/23 02:15:39;;;;;;;13.23;9.05;;;9.50;99.90;;;;;;5030673;28;20582;-85
2023/11/23 02:18:08;;;;;;;15.30;9.73;;;9.50;99.90;;;;;;5041052;28;20239;-86
2023/11/23 02:20:35;;;;;;;17.00;9.93;;;9.60;99.90;;;;;;5055308;28;20452;-86
2023/11/23 02:23:03;;;;;;;12.83;9.13;;;9.60;99.90;;;;;;5050230;28;20976;-87
2023/11/23 02:25:29;;;;;;;10.97;8.20;;;9.60;99.90;;;;;;5051227;28;20453;-86
2023/11/23 02:27:55;;;;;;;15.40;9.43;;;9.60;99.90;;;;;;5045998;28;20466;-86
2023/11/23 02:30:24;;;;;;;13.87;9.10;;;9.50;99.90;;;;;;5047343;28;20463;-87
2023/11/23 02:32:50;;;;;;;16.67;8.60;;;9.50;99.90;;;;;;5033704;28;20542;-87
2023/11/23 02:35:19;;;;;;;14.00;9.40;;;9.50;99.90;;;;;;5028027;28;21003;-86
2023/11/23 02:37:47;;;;;;;15.77;10.37;;;9.50;99.90;;;;;;5053786;28;20234;-85
2023/11/23 02:40:14;;;;;;;15.10;9.50;;;9.60;99.90;;;;;;5043661;28;20437;-86
2023/11/23 02:42:40;;;;;;;12.57;9.55;;;9.60;99.90;;;;;;5060866;28;20212;-87
2023/11/23 02:45:09;;;;;;;11.30;9.50;;;9.60;99.90;;;;;;5065098;28;20204;-88
2023/11/23 02:47:35;;;;;;;13.17;9.63;;;9.70;99.90;;;;;;5027372;28;20450;-87
2023/11/23 02:50:07;;;;;;;13.30;10.10;;;9.70;99.90;;;;;;5066654;28;20446;-86
2023/11/23 02:52:38;;;;;;;13.63;10.02;;;9.60;99.90;;;;;;5052077;28;20434;-86
2023/11/23 02:55:04;;;;;;;15.10;10.70;;;9.60;99.90;;;;;;5060743;28;20241;-86
2023/11/23 02:57:30;;;;;;;14.40;9.90;;;9.70;99.90;;;;;;5038757;28;20489;-86
2023/11/23 03:00:01;;;;;;;14.17;10.83;;;9.60;99.90;;;;;;5052605;28;20692;-86
2023/11/23 03:02:29;;;;;;;12.10;9.80;;;9.60;99.90;;;;;;5047770;28;20478;-85
2023/11/23 03:05:03;;;;;;;13.33;9.57;;;9.60;99.90;;;;;;5019655;28;21024;-87
2023/11/23 03:07:34;;;;;;;14.70;9.77;;;9.60;99.90;;;;;;5036955;28;20442;-87
2023/11/23 03:10:01;;;;;;;12.25;9.20;;;9.60;99.90;;;;;;5036764;28;20451;-87
2023/11/23 03:12:29;;;;;;;16.00;10.10;;;9.60;99.90;;;;;;5044111;28;20203;-86
2023/11/23 03:14:55;;;;;;;11.30;9.80;;;9.60;99.90;;;;;;5032597;28;20458;-85
2023/11/23 03:17:21;;;;;;;12.87;10.37;;;9.60;99.90;;;;;;5030105;28;20424;-85
2023/11/23 03:19:47;;;;;;;14.60;9.80;;;9.60;99.90;;;;;;5006024;28;20966;-86
2023/11/23 03:22:14;;;;;;;12.60;9.00;;;9.60;99.90;;;;;;5025125;28;20469;-84
2023/11/23 03:24:40;;;;;;;16.03;10.47;;;9.60;99.90;;;;;;5032946;28;20435;-85
2023/11/23 03:27:09;;;;;;;13.33;10.03;;;9.60;99.90;;;;;;5028753;28;20946;-86
2023/11/23 03:29:35;;;;;;;17.67;10.40;;;9.60;99.90;;;;;;5029401;28;20450;-86
2023/11/23 03:32:01;;;;;;;15.90;10.20;;;9.60;99.90;;;;;;5049166;28;20453;-86
2023/11/23 03:34:26;;;;;;;13.73;10.13;;;9.50;99.90;;;;;;5055227;28;20509;-85
2023/11/23 03:36:55;;;;;;;13.83;9.47;;;9.60;99.90;;;;;;5035727;28;20437;-86
2023/11/23 03:39:23;;;;;;;13.10;9.90;;;9.60;99.90;;;;;;5020565;28;20523;-86
2023/11/23 03:41:49;;;;;;;15.50;9.97;;;9.50;99.90;;;;;;5023535;28;20469;-87
2023/11/23 03:44:15;;;;;;;14.20;9.80;;;9.60;99.90;;;;;;5039073;28;20273;-87
2023/11/23 03:46:41;;;;;;;14.63;9.40;;;9.60;99.90;;;;;;5023401;28;20218;-85
2023/11/23 03:49:09;;;;;;;11.80;9.57;;;9.50;99.90;;;;;;5024993;28;20442;-86
2023/11/23 03:51:36;;;;;;;12.50;9.83;;;9.60;99.90;;;;;;5052730;28;20441;-85
2023/11/23 03:54:02;;;;;;;12.87;9.83;;;9.60;99.90;;;;;;5052655;28;20209;-85
2023/11/23 03:56:28;;;;;;;14.47;9.60;;;9.60;99.90;;;;;;5027219;28;20479;-87
2023/11/23 03:58:54;;;;;;;13.20;10.70;;;9.60;99.90;;;;;;5055550;28;20476;-84
2023/11/23 04:01:23;;;;;;;14.83;10.33;;;9.60;99.90;;;;;;5043871;28;20438;-84
2023/11/23 04:03:49;;;;;;;13.98;9.93;;;9.60;99.90;;;;;;5046670;28;20506;-85
2023/11/23 04:06:17;;;;;;;19.08;11.07;;;9.60;99.90;;;;;;5051456;28;20207;-84
2023/11/23 04:08:43;;;;;;;13.70;10.50;;;9.70;99.90;;;;;;5052488;28;20212;-86
2023/11/23 04:11:10;;;;;;;14.83;10.30;;;9.70;99.90;;;;;;5050145;28;20489;-85
2023/11/23 04:13:36;;;;;;;13.53;10.50;;;9.70;99.90;;;;;;5035210;28;20184;-86
2023/11/23 04:16:02;;;;;;;13.27;10.63;;;9.70;99.90;;;;;;5072424;28;20458;-84
2023/11/23 04:18:28;;;;;;;20.33;11.10;;;9.70;99.90;;;;;;5066147;28;20442;-84
2023/11/23 04:20:56;;;;;;;13.17;8.83;;;9.70;99.90;;;;;;5038894;28;20454;-85
2023/11/23 04:23:22;;;;;;;13.53;9.50;;;9.60;99.90;;;;;;5038491;28;21375;-85
2023/11/23 04:25:48;;;;;;;15.00;9.30;;;9.60;99.90;;;;;;5044714;28;20447;-87
2023/11/23 04:28:14;;;;;;;11.23;9.50;;;9.60;99.90;;;;;;5027180;28;20432;-85
2023/11/23 04:30:42;;;;;;;13.73;9.80;;;9.60;99.90;;;;;;5055699;28;20492;-85
2023/11/23 04:33:11;;;;;;;13.07;10.90;;;9.60;99.90;;;;;;5042407;28;20453;-87
2023/11/23 04:35:36;;;;;;;14.75;10.48;;;9.70;99.90;;;;;;5032481;28;20442;-87
2023/11/23 04:38:03;;;;;;;13.87;9.83;;;9.70;99.90;;;;;;5056577;28;20370;-86
2023/11/23 04:40:31;;;;;;;12.17;9.50;;;9.70;99.90;;;;;;5044856;28;20426;-87
2023/11/23 04:42:59;;;;;;;14.80;10.67;;;9.70;99.90;;;;;;5032315;28;20465;-86
2023/11/23 04:45:25;;;;;;;13.13;9.23;;;9.70;99.90;;;;;;5059306;28;20430;-86
2023/11/23 04:47:52;;;;;;;10.90;9.15;;;9.70;99.90;;;;;;5050748;28;20442;-86
2023/11/23 04:50:20;;;;;;;12.17;8.67;;;9.70;99.90;;;;;;5057021;28;20207;-86
2023/11/23 04:52:48;;;;;;;11.40;10.20;;;9.80;99.90;;;;;;5039849;28;21261;-85
2023/11/23 04:55:14;;;;;;;13.70;10.20;;;9.70;99.90;;;;;;5057515;28;20435;-84
2023/11/23 04:57:43;;;;;;;16.37;10.57;;;9.80;99.90;;;;;;5078748;28;20777;-86
2023/11/23 05:00:12;;;;;;;12.37;9.90;;;9.80;99.90;;;;;;5051199;28;20445;-86
2023/11/23 05:02:42;;;;;;;13.03;9.23;;;9.80;99.90;;;;;;5063006;28;20831;-86
2023/11/23 05:05:14;;;;;;;13.80;10.63;;;9.80;99.90;;;;;;5063719;28;20432;-86
2023/11/23 05:07:42;;;;;;;12.97;10.67;;;9.70;99.90;;;;;;5034627;28;20487;-85
2023/11/23 05:10:09;;;;;;;17.50;9.70;;;9.70;99.90;;;;;;5067843;28;20643;-86
2023/11/23 05:12:39;;;;;;;13.75;9.43;;;9.80;99.90;;;;;;5039077;28;20473;-85
2023/11/23 05:15:05;;;;;;;11.53;9.77;;;9.80;99.90;;;;;;5025901;28;20294;-86
2023/11/23 05:17:32;;;;;;;14.17;10.00;;;9.80;99.90;;;;;;5078899;28;20479;-85
2023/11/23 05:19:58;;;;;;;12.03;9.30;;;9.80;99.90;;;;;;5058934;28;20444;-85
2023/11/23 05:22:25;;;;;;;15.10;10.30;;;9.80;99.90;;;;;;5074956;28;20503;-86
2023/11/23 05:24:51;;;;;;;13.37;9.07;;;9.80;99.90;;;;;;5066150;28;20422;-86
2023/11/23 05:27:17;;;;;;;13.50;10.10;;;9.80;99.90;;;;;;5062948;28;20433;-86
2023/11/23 05:29:42;;;;;;;14.70;11.23;;;9.80;99.90;;;;;;5031243;28;20440;-83
2023/11/23 05:32:10;;;;;;;14.38;9.80;;;9.80;99.90;;;;;;5059391;28;20461;-86
2023/11/23 05:34:36;;;;;;;11.93;9.27;;;9.80;99.90;;;;;;5033377;28;20202;-86
2023/11/23 05:37:02;;;;;;;14.90;10.40;;;9.90;99.90;;;;;;5047336;28;20441;-86
2023/11/23 05:39:29;;;;;;;13.57;9.60;;;9.90;99.90;;;;;;5038233;28;20200;-86
2023/11/23 05:41:55;;;;;;;14.63;10.47;;;9.90;99.90;;;;;;5018740;28;20442;-86
2023/11/23 05:44:23;;;;;;;16.23;11.20;;;9.80;99.90;;;;;;5050108;28;20528;-86
2023/11/23 05:46:51;;;;;;;14.15;10.10;;;9.90;99.90;;;;;;5027965;28;20610;-84
2023/11/23 05:49:21;;;;;;;16.10;11.00;;;9.90;99.90;;;;;;5021389;28;20191;-84
2023/11/23 05:51:50;;;;;;;13.70;9.60;;;10.00;99.90;;;;;;5009097;28;20533;-85
2023/11/23 05:54:16;;;;;;;15.10;9.70;;;10.00;99.90;;;;;;5008630;28;20598;-84
2023/11/23 05:56:43;;;;;;;12.77;10.60;;;9.90;99.90;;;;;;5017660;28;21061;-85
2023/11/23 05:59:11;;;;;;;14.47;9.80;;;9.90;99.90;;;;;;5037330;28;20197;-84
2023/11/23 06:01:37;;;;;;;15.40;10.00;;;9.90;99.90;;;;;;5019322;28;20453;-85
2023/11/23 06:04:05;;;;;;;11.80;10.37;;;9.90;99.90;;;;;;5033121;28;20531;-84
2023/11/23 06:06:31;;;;;;;15.07;10.60;;;9.90;99.90;;;;;;5031484;28;20418;-84
2023/11/23 06:08:56;;;;;;;14.20;10.37;;;9.90;99.90;;;;;;5035515;28;20433;-85
2023/11/23 06:24:41;;;;;;;13.43;10.00;;;9.90;99.90;;;;;;5069197;28;20495;-92
2023/11/23 06:27:53;;;;;;;14.23;10.20;;;9.80;99.90;;;;;;4997101;28;20466;-89
2023/11/23 06:35:32;;;;;;;10.60;9.07;;;9.80;99.90;;;;;;5055301;28;21045;-88
2023/11/23 06:38:04;;;;;;;11.57;9.00;;;9.80;99.90;;;;;;5017525;28;20446;-87
2023/11/23 06:48:36;;;;;;;14.17;10.20;;;9.90;99.90;;;;;;5005697;28;20928;-89
2023/11/23 06:51:16;;;;;;;12.57;10.40;;;10.00;99.90;;;;;;4986058;28;20443;-91
2023/11/23 06:57:22;;;;;;;14.57;10.90;;;10.00;99.90;;;;;;5005605;28;20432;-88
2023/11/23 06:59:48;;;;;;;14.93;10.50;;;9.90;99.90;;;;;;4974141;28;20440;-92
2023/11/23 07:02:14;;;;;;;13.40;11.47;;;9.90;99.90;;;;;;4981781;28;20829;-89
2023/11/23 07:04:41;;;;;;;13.07;10.83;;;9.90;99.90;;;;;;5012486;28;20519;-89
2023/11/23 07:07:07;;;;;;;12.45;9.88;;;9.90;99.90;;;;;;5016587;28;20914;-92
2023/11/23 07:09:33;;;;;;;13.87;11.47;;;10.00;99.90;;;;;;5013850;28;20664;-91
2023/11/23 07:11:59;;;;;;;13.30;10.07;;;10.00;99.90;;;;;;5020440;28;20458;-92
2023/11/23 07:14:25;;;;;;;15.77;11.00;;;10.00;99.90;;;;;;4997713;28;20209;-89
2023/11/23 07:16:55;;;;;;;17.45;11.35;;;10.10;99.90;;;;;;4979886;28;20432;-89
2023/11/23 07:19:21;;;;;;;14.70;10.50;;;10.10;99.90;;;;;;5021430;28;20621;-90
2023/11/23 07:21:50;;;;;;;11.97;9.67;;;10.20;99.90;;;;;;5045444;28;20964;-90
2023/11/23 07:24:16;;;;;;;13.90;10.87;;;10.20;99.90;;;;;;5050958;28;20520;-91
2023/11/23 07:31:09;;;;;;;14.03;10.27;;;10.20;99.90;;;;;;5087335;28;20992;-93
2023/11/23 07:34:02;;;;;;;16.00;10.80;;;10.20;99.90;;;;;;5058569;28;20564;-91
2023/11/23 07:36:48;;;;;;;16.03;10.33;;;10.10;99.90;;;;;;5038399;28;20441;-90
2023/11/23 07:39:22;;;;;;;15.43;10.07;;;10.10;99.90;;;;;;5017036;28;20544;-90
2023/11/23 07:46:28;;;;;;;15.70;9.87;;;10.10;99.90;;;;;;5056544;28;20438;-88
2023/11/23 07:50:17;;;;;;;;;;;;;;;;;;;;;
2023/11/23 07:53:33;;;;;;;11.37;9.90;;;10.00;99.90;;;;;;5058425;28;20430;-90
2023/11/23 07:56:14;;;;;;;13.63;10.17;;;10.00;99.90;;;;;;5014227;28;20437;-90
2023/11/23 07:59:11;;;;;;;12.90;10.00;;;10.00;99.90;;;;;;5034959;28;20436;-89
2023/11/23 08:01:38;;;;;;;19.93;11.13;;;10.10;99.90;;;;;;5026657;28;20252;-87
2023/11/23 08:04:04;;;;;;;15.20;10.38;;;10.10;99.90;;;;;;5014746;28;20966;-87
2023/11/23 08:06:50;;;;;;;17.60;11.20;;;10.10;99.90;;;;;;5032113;28;20230;-88
2023/11/23 08:09:22;;;;;;;11.53;9.77;;;10.20;99.90;;;;;;5026253;28;20459;-89
2023/11/23 08:11:52;;;;;;;17.63;11.30;;;10.10;99.90;;;;;;5024780;28;20593;-90
2023/11/23 08:14:19;;;;;;;12.57;9.77;;;10.10;99.90;;;;;;5015448;28;20451;-88
2023/11/23 08:16:45;;;;;;;15.43;10.10;;;10.20;99.90;;;;;;5024286;28;20454;-89
2023/11/23 08:24:21;;;;;;;11.97;10.00;;;10.10;99.90;;;;;;4986613;28;20493;-92
2023/11/23 08:31:43;;;;;;;17.00;10.93;;;10.10;99.90;;;;;;4991763;28;20444;-93
2023/11/23 08:38:27;;;;;;;14.00;9.50;;;10.10;99.90;;;;;;4953859;28;20460;-91
2023/11/23 08:41:00;;;;;;;14.70;10.33;;;10.10;99.90;;;;;;4960985;28;20450;-91
2023/11/23 08:48:22;;;;;;;14.20;10.40;;;10.10;99.90;;;;;;4951897;28;20413;-93
2023/11/23 08:51:00;;;;;;;13.23;10.50;;;10.10;99.90;;;;;;4930593;28;20542;-93
2023/11/23 09:06:36;;;;;;;12.93;10.83;;;10.10;99.90;;;;;;4934363;29;20435;-91
2023/11/23 09:13:21;;;;;;;16.27;10.57;;;10.20;99.90;;;;;;4860265;29;20464;-88
2023/11/23 09:16:01;;;;;;;16.47;11.40;;;10.20;99.90;;;;;;4884015;29;20285;-92
2023/11/23 09:18:32;;;;;;;13.32;10.80;;;10.30;99.90;;;;;;4880440;29;20529;-89
2023/11/23 09:20:58;;;;;;;12.50;10.20;;;10.30;99.90;;;;;;4879010;29;20458;-89
2023/11/23 09:23:47;;;;;;;12.40;10.23;;;10.40;99.90;;;;;;4939033;28;20229;-89
2023/11/23 09:27:17;;;;;;;16.30;10.43;;;10.40;99.90;;;;;;4956457;28;20700;-90
2023/11/23 09:29:45;;;;;;;11.80;10.15;;;10.40;99.90;;;;;;4965384;28;20469;-90
2023/11/23 09:32:20;;;;;;;12.13;10.83;;;10.40;99.90;;;;;;4927748;28;20264;-90
2023/11/23 09:39:04;;;;;;;14.60;10.50;;;10.40;99.90;;;;;;4985758;28;20432;-92
2023/11/23 09:42:04;;;;;;;14.40;9.67;;;10.40;99.90;;;;;;4959606;28;20213;-91
2023/11/23 09:44:57;;;;;;;15.03;10.77;;;10.40;99.90;;;;;;5043839;28;20611;-91
2023/11/23 09:51:00;;;;;;;14.23;11.00;;;10.40;99.90;;;;;;5064350;28;20437;-91
2023/11/23 09:53:27;;;;;;;13.98;11.10;;;10.40;99.90;;;;;;5088258;28;20533;-90
2023/11/23 09:55:53;;;;;;;11.18;9.80;;;10.40;99.90;;;;;;5053814;28;20183;-89
2023/11/23 09:58:21;;;;;;;12.60;10.83;;;10.50;99.90;;;;;;5038116;28;20503;-91
2023/11/23 10:01:05;;;;;;;14.10;10.70;;;10.50;99.90;;;;;;5068690;28;21281;-90
2023/11/23 10:03:56;;;;;;;17.60;12.60;;;10.50;99.90;;;;;;5054312;28;20469;-89
2023/11/23 10:06:22;;;;;;;13.20;11.20;;;10.40;99.90;;;;;;5039662;28;20610;-90
2023/11/23 10:08:49;;;;;;;14.77;11.97;;;10.40;99.90;;;;;;5052708;28;20460;-91
2023/11/23 10:11:15;;;;;;;12.50;10.83;;;10.40;99.90;;;;;;5050243;28;20537;-90
2023/11/23 10:13:41;;;;;;;16.90;12.70;;;10.40;99.90;;;;;;5058455;28;20449;-89
2023/11/23 10:16:11;;;;;;;15.57;12.77;;;10.40;99.90;;;;;;5049617;28;20806;-90
2023/11/23 10:18:42;;;;;;;18.40;12.53;;;10.40;99.90;;;;;;5050013;28;20444;-90
2023/11/23 10:21:11;;;;;;;12.47;10.83;;;10.40;99.90;;;;;;5037029;28;20442;-89
2023/11/23 10:23:39;;;;;;;16.33;11.07;;;10.40;99.90;;;;;;5056982;28;20525;-92
2023/11/23 10:26:07;;;;;;;17.08;12.50;;;10.40;99.90;;;;;;5050907;28;20457;-88
2023/11/23 10:33:10;;;;;;;16.10;12.90;;;10.50;99.90;;;;;;4951784;28;20522;-91
2023/11/23 10:37:04;;;;;;;15.03;12.23;;;10.50;99.90;;;;;;4961730;28;20445;-87
2023/11/23 10:39:31;;;;;;;15.10;12.50;;;10.50;99.90;;;;;;4958735;28;20460;-89
2023/11/23 10:42:50;;;;;;;15.80;11.60;;;10.40;99.90;;;;;;4975718;28;20554;-91
2023/11/23 10:45:21;;;;;;;15.97;11.70;;;10.50;99.90;;;;;;4959508;28;20480;-92
2023/11/23 10:47:47;;;;;;;15.17;11.70;;;10.40;99.90;;;;;;4942855;28;20442;-91
2023/11/23 10:54:27;;;;;;;13.33;10.70;;;10.50;99.90;;;;;;4973445;28;21090;-89
2023/11/23 10:56:57;;;;;;;17.13;10.80;;;10.50;99.90;;;;;;4949840;28;20443;-88
2023/11/23 10:59:26;;;;;;;13.33;11.67;;;10.50;99.90;;;;;;4947052;28;20513;-90
2023/11/23 11:01:55;;;;;;;13.47;11.67;;;10.50;99.90;;;;;;4950432;28;20549;-90
2023/11/23 11:04:22;;;;;;;14.23;11.30;;;10.50;99.90;;;;;;4951294;28;20478;-89
2023/11/23 11:06:54;;;;;;;14.13;10.65;;;10.50;99.90;;;;;;4938584;28;20215;-88
2023/11/23 11:09:25;;;;;;;13.73;11.00;;;10.60;99.90;;;;;;4976746;28;20195;-92
2023/11/23 11:12:20;;;;;;;11.80;9.93;;;10.60;99.90;;;;;;4971677;28;21218;-90
2023/11/23 11:19:23;;;;;;;10.82;9.70;;;10.60;99.90;;;;;;5000161;28;20534;-89
2023/11/23 11:21:50;;;;;;;11.70;10.33;;;10.70;99.90;;;;;;4954937;28;20736;-90
2023/11/23 11:24:23;;;;;;;10.63;9.47;;;10.70;99.90;;;;;;4989345;28;21185;-92
2023/11/23 11:29:50;;;;;;;13.57;9.70;;;10.70;99.90;;;;;;4978955;28;20519;-89
2023/11/23 11:33:00;;;;;;;12.30;9.53;;;10.70;99.90;;;;;;5037515;28;20496;-87
2023/11/23 11:36:10;;;;;;;12.93;9.98;;;10.60;99.90;;;;;;5051386;28;20452;-88
2023/11/23 11:39:05;;;;;;;14.43;9.60;;;10.70;99.90;;;;;;5038305;28;20203;-95
2023/11/23 11:41:59;;;;;;;11.27;8.80;;;10.70;99.90;;;;;;5041732;28;20542;-89
2023/11/23 11:44:48;;;;;;;10.70;9.60;;;10.70;99.90;;;;;;5056897;28;20481;-89
2023/11/23 11:47:17;;;;;;;9.55;8.43;;;10.70;99.90;;;;;;5023541;28;20474;-89
2023/11/23 11:49:43;;;;;;;11.30;8.47;;;10.70;99.90;;;;;;5056383;28;20183;-93
2023/11/23 11:52:12;;;;;;;10.53;8.17;;;10.80;99.90;;;;;;5048441;28;20446;-93
2023/11/23 11:54:39;;;;;;;10.50;8.43;;;10.80;99.90;;;;;;5039163;28;20449;-91
2023/11/23 11:57:07;;;;;;;10.30;7.70;;;10.80;99.90;;;;;;5043768;28;20466;-89
2023/11/23 11:59:35;;;;;;;9.73;7.90;;;10.80;99.90;;;;;;5069210;28;20434;-88
2023/11/23 12:02:09;;;;;;;8.57;7.77;;;10.80;99.90;;;;;;5050114;28;20422;-92
2023/11/23 12:05:14;;;;;;;10.97;7.80;;;10.80;99.90;;;;;;5056266;28;20434;-88
2023/11/23 12:08:01;;;;;;;9.03;7.47;;;10.80;99.90;;;;;;5030052;28;20454;-88
2023/11/23 12:10:39;;;;;;;9.65;7.82;;;10.80;99.90;;;;;;5046007;28;20544;-91
2023/11/23 12:13:06;;;;;;;9.60;7.23;;;10.80;99.90;;;;;;5039843;28;20249;-92
2023/11/23 12:15:33;;;;;;;9.70;7.10;;;10.80;99.90;;;;;;5036199;28;20430;-89
2023/11/23 12:18:02;;;;;;;9.13;7.57;;;10.80;99.90;;;;;;5060304;28;20197;-90
2023/11/23 12:20:36;;;;;;;7.40;6.65;;;10.90;99.90;;;;;;5035781;28;20918;-94
2023/11/23 12:23:12;;;;;;;10.73;7.57;;;10.90;99.90;;;;;;5055276;28;20277;-93
2023/11/23 12:25:53;;;;;;;7.87;5.60;;;10.90;99.90;;;;;;5043069;28;20445;-93
2023/11/23 12:28:21;;;;;;;9.03;7.13;;;10.90;99.90;;;;;;5056587;28;20495;-89
2023/11/23 12:30:48;;;;;;;8.20;6.07;;;10.90;99.90;;;;;;5067447;28;20496;-89
2023/11/23 12:33:14;;;;;;;11.27;7.63;;;10.90;99.90;;;;;;5046301;28;20430;-89
2023/11/23 12:35:47;;;;;;;7.43;6.65;;;10.90;99.90;;;;;;5051010;28;20426;-89
2023/11/23 12:38:13;;;;;;;7.63;6.70;;;10.90;99.90;;;;;;5031793;28;20191;-90
2023/11/23 12:40:39;;;;;;;7.67;6.80;;;10.90;99.90;;;;;;5080343;28;20442;-89
2023/11/23 12:43:10;;;;;;;11.13;7.20;;;10.90;99.90;;;;;;5034139;28;20485;-91
2023/11/23 12:45:38;;;;;;;7.20;6.50;;;10.90;99.90;;;;;;5043110;28;20468;-89
2023/11/23 12:48:04;;;;;;;8.87;6.73;;;10.90;99.90;;;;;;5050118;28;20247;-87
2023/11/23 12:50:31;;;;;;;9.13;6.03;;;10.90;99.90;;;;;;5092359;28;20916;-89
2023/11/23 12:52:57;;;;;;;8.77;6.40;;;10.90;99.90;;;;;;5049619;28;20426;-85
2023/11/23 12:55:23;;;;;;;9.73;6.37;;;10.90;99.90;;;;;;5059095;28;20422;-89
2023/11/23 12:57:50;;;;;;;7.75;5.93;;;11.00;99.90;;;;;;5055915;28;20927;-90
2023/11/23 13:00:21;;;;;;;6.67;6.00;;;10.90;99.90;;;;;;5032081;28;20197;-91
2023/11/23 13:03:01;;;;;;;6.93;5.73;;;11.00;99.90;;;;;;5060629;28;20480;-89
2023/11/23 13:05:34;;;;;;;6.60;5.82;;;11.00;99.90;;;;;;5031614;28;20430;-94
2023/11/23 13:08:08;;;;;;;7.17;5.23;;;11.00;99.90;;;;;;5024954;28;20188;-87
2023/11/23 13:10:34;;;;;;;11.93;6.30;;;11.10;99.90;;;;;;5037950;28;20499;-92
2023/11/23 13:13:00;;;;;;;6.50;5.30;;;11.10;99.90;;;;;;5032295;28;20431;-93
2023/11/23 13:15:27;;;;;;;7.50;6.00;;;11.10;99.90;;;;;;5040031;28;20464;-88
2023/11/23 13:17:53;;;;;;;6.40;5.65;;;11.00;99.90;;;;;;5057208;28;20187;-90
2023/11/23 13:20:20;;;;;;;7.90;5.70;;;11.10;99.90;;;;;;5065307;28;20276;-89
2023/11/23 13:22:50;;;;;;;7.30;5.68;;;11.10;99.90;;;;;;5054124;28;20553;-88
2023/11/23 13:26:02;;;;;;;6.75;5.82;;;11.10;99.90;;;;;;5056828;28;20270;-89
2023/11/23 13:28:57;;;;;;;6.17;5.07;;;11.20;99.90;;;;;;4977821;28;20183;-93
2023/11/23 13:31:27;;;;;;;5.47;4.93;;;11.20;99.90;;;;;;5030485;28;20431;-90
2023/11/23 13:33:53;;;;;;;8.65;5.57;;;11.20;99.90;;;;;;5041162;28;20421;-87
2023/11/23 13:36:19;;;;;;;6.67;5.37;;;11.10;99.90;;;;;;5056417;28;20670;-88
2023/11/23 13:38:50;;;;;;;10.23;4.87;;;11.10;99.90;;;;;;5020418;28;20433;-87
2023/11/23 13:41:18;;;;;;;6.20;4.80;;;11.10;99.90;;;;;;5037043;28;20520;-89
2023/11/23 13:43:50;;;;;;;5.50;5.00;;;11.10;99.90;;;;;;5021765;28;20931;-87
2023/11/23 13:46:25;;;;;;;4.90;4.20;;;11.10;99.90;;;;;;5062903;28;20448;-90
2023/11/23 13:48:59;;;;;;;6.00;4.90;;;11.10;99.90;;;;;;5037286;28;20430;-88
2023/11/23 13:51:28;;;;;;;7.30;5.03;;;11.10;99.90;;;;;;5058208;28;20426;-88
2023/11/23 13:53:54;;;;;;;6.57;4.70;;;11.10;99.90;;;;;;5073895;28;20450;-86
2023/11/23 13:56:22;;;;;;;7.10;4.63;;;11.10;99.90;;;;;;5048056;28;20454;-88
2023/11/23 13:58:48;;;;;;;5.60;4.80;;;11.10;99.90;;;;;;5036385;28;20430;-87
2023/11/23 14:01:15;;;;;;;10.02;4.53;;;11.10;99.90;;;;;;5027641;28;20429;-86
2023/11/23 14:03:42;;;;;;;7.53;4.50;;;11.10;99.90;;;;;;5065448;28;20487;-90
2023/11/23 14:06:39;;;;;;;8.03;4.53;;;11.10;99.90;;;;;;5024381;28;20435;-94
2023/11/23 14:09:09;;;;;;;4.70;3.90;;;11.10;99.90;;;;;;5023393;28;20436;-87
2023/11/23 14:11:35;;;;;;;5.67;4.10;;;11.10;99.90;;;;;;5037527;28;20762;-86
2023/11/23 14:14:01;;;;;;;6.80;4.63;;;11.10;99.90;;;;;;5048600;28;20437;-85
2023/11/23 14:17:13;;;;;;;5.33;4.40;;;11.10;99.90;;;;;;5039372;28;20518;-90
2023/11/23 14:20:37;;;;;;;4.53;4.13;;;11.10;99.90;;;;;;5061871;28;21196;-89
2023/11/23 14:23:05;;;;;;;9.10;4.63;;;11.10;99.90;;;;;;5055401;28;20485;-87
2023/11/23 14:25:40;;;;;;;5.03;3.80;;;11.10;99.90;;;;;;5036785;28;20665;-87
2023/11/23 14:28:15;;;;;;;4.77;4.20;;;11.20;99.90;;;;;;5046097;28;20446;-88
2023/11/23 14:30:44;;;;;;;6.32;4.10;;;11.20;99.90;;;;;;5058374;28;20832;-87
2023/11/23 14:33:23;;;;;;;5.97;4.40;;;11.20;99.90;;;;;;5075303;28;20207;-89
2023/11/23 14:35:54;;;;;;;4.63;4.00;;;11.20;99.90;;;;;;5065628;28;20430;-89
2023/11/23 14:38:20;;;;;;;5.70;4.10;;;11.20;99.90;;;;;;5024642;28;20412;-91
2023/11/23 14:40:47;;;;;;;4.87;3.83;;;11.20;99.90;;;;;;5053127;28;20540;-84